This is the latest recevied weather packets stored in our database for station/object DD8XX-10. If no packets are shown the sender has not sent any weather packets the latest 10 day(s).
| Time | Temp. | Humidity | Pressure | Rain* | Wind** | Luminosity | Snow |
|---|---|---|---|---|---|---|---|
| 1777461088 | 15° C | 44% | 1025 hPa | - | - | - | - |
| 1777460188 | 15.56° C | 46% | 1025.1 hPa | - | - | - | - |
| 1777459288 | 14.44° C | 49% | 1025.2 hPa | - | - | - | - |
| 1777458388 | 14.44° C | 49% | 1025.4 hPa | - | - | - | - |
| 1777457494 | 13.89° C | 50% | 1025.3 hPa | - | - | - | - |
| 1777457488 | 13.89° C | 50% | 1025.3 hPa | - | - | - | - |
| 1777456594 | 13.33° C | 51% | 1025.4 hPa | - | - | - | - |
| 1777456588 | 13.33° C | 51% | 1025.4 hPa | - | - | - | - |
| 1777455688 | 12.22° C | 54% | 1025.4 hPa | - | - | - | - |
| 1777454787 | 11.11° C | 57% | 1025.4 hPa | - | - | - | - |
| 1777453887 | 12.22° C | 56% | 1025.4 hPa | - | - | - | - |
| 1777452987 | 12.22° C | 57% | 1025.3 hPa | - | - | - | - |
| 1777452087 | 11.67° C | 59% | 1025.2 hPa | - | - | - | - |
| 1777451187 | 11.67° C | 60% | 1025.4 hPa | - | - | - | - |
| 1777450287 | 11.11° C | 61% | 1025.3 hPa | - | - | - | - |
| 1777449393 | 11.11° C | 63% | 1025.4 hPa | - | - | - | - |
| 1777449387 | 11.11° C | 63% | 1025.4 hPa | - | - | - | - |
| 1777448487 | 11.11° C | 62% | 1025.3 hPa | - | - | - | - |
| 1777447586 | 11.11° C | 62% | 1025.1 hPa | - | - | - | - |
| 1777446688 | 10.56° C | 64% | 1024.9 hPa | - | - | - | - |
| 1777444712 | 10° C | 69% | 1024.8 hPa | - | - | - | - |
| 1777443812 | 10° C | 72% | 1024.7 hPa | - | - | - | - |
| 1777442911 | 10° C | 72% | 1024.6 hPa | - | - | - | - |
| 1777442012 | 10° C | 73% | 1024.5 hPa | - | - | - | - |
| 1777442007 | 10° C | 73% | 1024.5 hPa | - | - | - | - |
* Rain since midnight (hover to see other rain measurements)
** Current wind speed in m/s (hover to see current wind gust speed)